sensor_id;sensor_type;location;lat;lon;timestamp;P1;durP1;ratioP1;P2;durP2;ratioP2
18875;SDS011;9570;50.854;13.778;2023-02-22T00:01:17;6.43;;;4.50;;
18875;SDS011;9570;50.854;13.778;2023-02-22T00:03:51;7.17;;;4.70;;
18875;SDS011;9570;50.854;13.778;2023-02-22T00:06:18;7.20;;;4.73;;
18875;SDS011;9570;50.854;13.778;2023-02-22T00:08:46;8.30;;;4.93;;
18875;SDS011;9570;50.854;13.778;2023-02-22T00:11:12;7.10;;;4.67;;
18875;SDS011;9570;50.854;13.778;2023-02-22T00:13:38;8.73;;;4.73;;
18875;SDS011;9570;50.854;13.778;2023-02-22T00:16:08;8.07;;;5.00;;
18875;SDS011;9570;50.854;13.778;2023-02-22T00:18:36;7.47;;;5.40;;
18875;SDS011;9570;50.854;13.778;2023-02-22T00:21:02;8.17;;;5.23;;
18875;SDS011;9570;50.854;13.778;2023-02-22T00:23:34;8.07;;;5.57;;
18875;SDS011;9570;50.854;13.778;2023-02-22T00:26:03;8.60;;;5.07;;
18875;SDS011;9570;50.854;13.778;2023-02-22T00:28:30;7.30;;;5.03;;
18875;SDS011;9570;50.854;13.778;2023-02-22T00:30:55;8.00;;;5.20;;
18875;SDS011;9570;50.854;13.778;2023-02-22T00:33:21;8.67;;;5.10;;
18875;SDS011;9570;50.854;13.778;2023-02-22T00:35:47;7.10;;;5.40;;
18875;SDS011;9570;50.854;13.778;2023-02-22T00:38:13;7.80;;;5.53;;
18875;SDS011;9570;50.854;13.778;2023-02-22T00:40:41;8.37;;;4.90;;
18875;SDS011;9570;50.854;13.778;2023-02-22T00:43:06;6.80;;;5.00;;
18875;SDS011;9570;50.854;13.778;2023-02-22T00:45:33;7.17;;;5.07;;
18875;SDS011;9570;50.854;13.778;2023-02-22T00:48:00;7.70;;;4.70;;
18875;SDS011;9570;50.854;13.778;2023-02-22T00:50:28;8.50;;;5.40;;
18875;SDS011;9570;50.854;13.778;2023-02-22T00:52:54;7.57;;;4.83;;
18875;SDS011;9570;50.854;13.778;2023-02-22T00:55:25;6.20;;;4.33;;
18875;SDS011;9570;50.854;13.778;2023-02-22T00:57:56;8.83;;;4.63;;
18875;SDS011;9570;50.854;13.778;2023-02-22T01:00:23;6.40;;;4.43;;
18875;SDS011;9570;50.854;13.778;2023-02-22T01:02:50;7.53;;;5.00;;
18875;SDS011;9570;50.854;13.778;2023-02-22T01:05:17;9.47;;;4.90;;
18875;SDS011;9570;50.854;13.778;2023-02-22T01:07:46;10.27;;;5.27;;
18875;SDS011;9570;50.854;13.778;2023-02-22T01:10:12;8.70;;;4.60;;
18875;SDS011;9570;50.854;13.778;2023-02-22T01:12:38;7.83;;;5.23;;
18875;SDS011;9570;50.854;13.778;2023-02-22T01:15:04;7.27;;;4.80;;
18875;SDS011;9570;50.854;13.778;2023-02-22T01:17:34;6.67;;;4.80;;
18875;SDS011;9570;50.854;13.778;2023-02-22T01:20:01;11.23;;;5.77;;
18875;SDS011;9570;50.854;13.778;2023-02-22T01:22:34;6.17;;;4.87;;
18875;SDS011;9570;50.854;13.778;2023-02-22T01:24:59;7.03;;;4.97;;
18875;SDS011;9570;50.854;13.778;2023-02-22T01:27:25;7.50;;;4.87;;
18875;SDS011;9570;50.854;13.778;2023-02-22T01:29:50;10.30;;;5.03;;
18875;SDS011;9570;50.854;13.778;2023-02-22T01:32:16;5.57;;;4.40;;
18875;SDS011;9570;50.854;13.778;2023-02-22T01:34:41;6.10;;;4.27;;
18875;SDS011;9570;50.854;13.778;2023-02-22T01:37:07;7.33;;;4.50;;
18875;SDS011;9570;50.854;13.778;2023-02-22T01:39:32;8.47;;;4.97;;
18875;SDS011;9570;50.854;13.778;2023-02-22T01:41:58;7.53;;;5.03;;
18875;SDS011;9570;50.854;13.778;2023-02-22T01:44:25;6.30;;;4.60;;
18875;SDS011;9570;50.854;13.778;2023-02-22T01:46:55;8.57;;;4.77;;
18875;SDS011;9570;50.854;13.778;2023-02-22T01:49:22;6.83;;;4.57;;
18875;SDS011;9570;50.854;13.778;2023-02-22T01:51:52;8.43;;;4.90;;
18875;SDS011;9570;50.854;13.778;2023-02-22T01:54:33;7.33;;;5.00;;
18875;SDS011;9570;50.854;13.778;2023-02-22T01:57:07;9.27;;;5.20;;
18875;SDS011;9570;50.854;13.778;2023-02-22T01:59:57;7.83;;;4.80;;
18875;SDS011;9570;50.854;13.778;2023-02-22T02:02:26;7.63;;;5.23;;
18875;SDS011;9570;50.854;13.778;2023-02-22T02:04:53;8.83;;;5.63;;
18875;SDS011;9570;50.854;13.778;2023-02-22T02:07:20;7.50;;;5.50;;
18875;SDS011;9570;50.854;13.778;2023-02-22T02:09:51;8.47;;;5.00;;
18875;SDS011;9570;50.854;13.778;2023-02-22T02:12:21;8.83;;;5.17;;
18875;SDS011;9570;50.854;13.778;2023-02-22T02:14:50;8.83;;;5.47;;
18875;SDS011;9570;50.854;13.778;2023-02-22T02:17:16;7.20;;;4.90;;
18875;SDS011;9570;50.854;13.778;2023-02-22T02:19:57;8.57;;;5.07;;
18875;SDS011;9570;50.854;13.778;2023-02-22T02:22:39;7.33;;;5.30;;
18875;SDS011;9570;50.854;13.778;2023-02-22T02:34:04;8.40;;;5.27;;
18875;SDS011;9570;50.854;13.778;2023-02-22T02:39:28;10.93;;;5.60;;
18875;SDS011;9570;50.854;13.778;2023-02-22T02:42:13;9.97;;;5.23;;
18875;SDS011;9570;50.854;13.778;2023-02-22T02:44:45;8.37;;;5.40;;
18875;SDS011;9570;50.854;13.778;2023-02-22T02:47:24;9.03;;;5.60;;
18875;SDS011;9570;50.854;13.778;2023-02-22T02:52:26;8.07;;;5.47;;
18875;SDS011;9570;50.854;13.778;2023-02-22T02:54:55;10.40;;;6.23;;
18875;SDS011;9570;50.854;13.778;2023-02-22T02:57:21;11.57;;;5.60;;
18875;SDS011;9570;50.854;13.778;2023-02-22T02:59:48;8.43;;;5.57;;
18875;SDS011;9570;50.854;13.778;2023-02-22T03:05:32;7.00;;;5.13;;
18875;SDS011;9570;50.854;13.778;2023-02-22T03:08:19;10.03;;;5.53;;
18875;SDS011;9570;50.854;13.778;2023-02-22T03:16:41;9.53;;;5.67;;
18875;SDS011;9570;50.854;13.778;2023-02-22T03:22:06;8.10;;;5.37;;
18875;SDS011;9570;50.854;13.778;2023-02-22T03:24:46;7.97;;;5.37;;
18875;SDS011;9570;50.854;13.778;2023-02-22T03:27:25;7.20;;;4.83;;
18875;SDS011;9570;50.854;13.778;2023-02-22T03:29:57;11.10;;;6.03;;
18875;SDS011;9570;50.854;13.778;2023-02-22T03:32:27;8.40;;;5.70;;
18875;SDS011;9570;50.854;13.778;2023-02-22T03:34:58;7.83;;;5.50;;
18875;SDS011;9570;50.854;13.778;2023-02-22T03:37:29;9.13;;;5.80;;
18875;SDS011;9570;50.854;13.778;2023-02-22T03:39:58;10.23;;;5.60;;
18875;SDS011;9570;50.854;13.778;2023-02-22T03:42:30;10.33;;;5.63;;
18875;SDS011;9570;50.854;13.778;2023-02-22T03:44:59;11.73;;;5.57;;
18875;SDS011;9570;50.854;13.778;2023-02-22T03:47:30;7.27;;;5.53;;
18875;SDS011;9570;50.854;13.778;2023-02-22T03:50:04;7.40;;;5.07;;
18875;SDS011;9570;50.854;13.778;2023-02-22T03:52:42;10.83;;;5.80;;
18875;SDS011;9570;50.854;13.778;2023-02-22T03:55:09;9.57;;;5.93;;
18875;SDS011;9570;50.854;13.778;2023-02-22T03:57:37;9.83;;;5.47;;
18875;SDS011;9570;50.854;13.778;2023-02-22T04:00:08;10.70;;;6.00;;
18875;SDS011;9570;50.854;13.778;2023-02-22T04:02:36;8.83;;;5.80;;
18875;SDS011;9570;50.854;13.778;2023-02-22T04:05:02;10.87;;;6.17;;
18875;SDS011;9570;50.854;13.778;2023-02-22T04:07:27;7.53;;;5.40;;
18875;SDS011;9570;50.854;13.778;2023-02-22T04:09:53;9.30;;;6.33;;
18875;SDS011;9570;50.854;13.778;2023-02-22T04:12:18;12.63;;;6.87;;
18875;SDS011;9570;50.854;13.778;2023-02-22T04:14:44;9.47;;;6.20;;
18875;SDS011;9570;50.854;13.778;2023-02-22T04:17:09;9.63;;;5.87;;
18875;SDS011;9570;50.854;13.778;2023-02-22T04:19:35;13.63;;;6.30;;
18875;SDS011;9570;50.854;13.778;2023-02-22T04:22:00;11.07;;;6.57;;
18875;SDS011;9570;50.854;13.778;2023-02-22T04:24:25;10.90;;;6.73;;
18875;SDS011;9570;50.854;13.778;2023-02-22T04:26:51;9.40;;;6.00;;
18875;SDS011;9570;50.854;13.778;2023-02-22T04:29:17;9.47;;;6.17;;
18875;SDS011;9570;50.854;13.778;2023-02-22T04:31:42;10.90;;;6.90;;
18875;SDS011;9570;50.854;13.778;2023-02-22T04:34:07;12.63;;;6.57;;
18875;SDS011;9570;50.854;13.778;2023-02-22T04:36:33;8.23;;;6.13;;
18875;SDS011;9570;50.854;13.778;2023-02-22T04:38:59;10.53;;;6.43;;
18875;SDS011;9570;50.854;13.778;2023-02-22T04:41:25;9.87;;;6.07;;
18875;SDS011;9570;50.854;13.778;2023-02-22T04:43:51;12.17;;;6.50;;
18875;SDS011;9570;50.854;13.778;2023-02-22T04:46:16;9.93;;;6.13;;
18875;SDS011;9570;50.854;13.778;2023-02-22T04:48:42;12.00;;;6.70;;
18875;SDS011;9570;50.854;13.778;2023-02-22T04:51:08;9.57;;;6.23;;
18875;SDS011;9570;50.854;13.778;2023-02-22T04:53:34;10.00;;;6.13;;
18875;SDS011;9570;50.854;13.778;2023-02-22T04:55:59;13.00;;;6.07;;
18875;SDS011;9570;50.854;13.778;2023-02-22T04:58:25;11.90;;;6.37;;
18875;SDS011;9570;50.854;13.778;2023-02-22T05:00:51;10.30;;;6.30;;
18875;SDS011;9570;50.854;13.778;2023-02-22T05:03:17;9.33;;;6.20;;
18875;SDS011;9570;50.854;13.778;2023-02-22T05:05:42;8.73;;;5.53;;
18875;SDS011;9570;50.854;13.778;2023-02-22T05:08:08;8.20;;;5.43;;
18875;SDS011;9570;50.854;13.778;2023-02-22T05:10:33;8.47;;;5.77;;
18875;SDS011;9570;50.854;13.778;2023-02-22T05:12:59;7.67;;;5.30;;
18875;SDS011;9570;50.854;13.778;2023-02-22T05:15:24;10.13;;;6.00;;
18875;SDS011;9570;50.854;13.778;2023-02-22T05:17:50;9.67;;;5.23;;
18875;SDS011;9570;50.854;13.778;2023-02-22T05:20:23;8.20;;;5.53;;
18875;SDS011;9570;50.854;13.778;2023-02-22T05:22:54;9.00;;;5.67;;
18875;SDS011;9570;50.854;13.778;2023-02-22T05:25:20;11.20;;;5.70;;
18875;SDS011;9570;50.854;13.778;2023-02-22T05:27:56;8.70;;;5.77;;
18875;SDS011;9570;50.854;13.778;2023-02-22T05:30:29;8.60;;;5.90;;
18875;SDS011;9570;50.854;13.778;2023-02-22T05:32:56;7.50;;;5.40;;
18875;SDS011;9570;50.854;13.778;2023-02-22T05:35:23;9.53;;;5.67;;
18875;SDS011;9570;50.854;13.778;2023-02-22T05:37:49;8.10;;;4.70;;
18875;SDS011;9570;50.854;13.778;2023-02-22T05:40:18;8.40;;;5.03;;
18875;SDS011;9570;50.854;13.778;2023-02-22T05:42:46;8.03;;;5.50;;
18875;SDS011;9570;50.854;13.778;2023-02-22T05:45:12;9.67;;;5.23;;
18875;SDS011;9570;50.854;13.778;2023-02-22T05:47:39;9.63;;;5.20;;
18875;SDS011;9570;50.854;13.778;2023-02-22T05:50:05;10.17;;;5.17;;
18875;SDS011;9570;50.854;13.778;2023-02-22T05:52:31;8.53;;;5.60;;
18875;SDS011;9570;50.854;13.778;2023-02-22T05:54:57;10.97;;;5.37;;
18875;SDS011;9570;50.854;13.778;2023-02-22T05:57:22;8.67;;;5.10;;
18875;SDS011;9570;50.854;13.778;2023-02-22T05:59:48;8.70;;;6.13;;
18875;SDS011;9570;50.854;13.778;2023-02-22T06:02:13;9.70;;;5.67;;
18875;SDS011;9570;50.854;13.778;2023-02-22T06:04:39;8.33;;;5.80;;
18875;SDS011;9570;50.854;13.778;2023-02-22T06:07:07;10.97;;;6.43;;
18875;SDS011;9570;50.854;13.778;2023-02-22T06:09:33;10.07;;;6.27;;
18875;SDS011;9570;50.854;13.778;2023-02-22T06:11:58;10.67;;;6.60;;
18875;SDS011;9570;50.854;13.778;2023-02-22T06:14:24;8.53;;;5.73;;
18875;SDS011;9570;50.854;13.778;2023-02-22T06:16:53;11.60;;;5.70;;
18875;SDS011;9570;50.854;13.778;2023-02-22T06:19:19;10.27;;;6.63;;
18875;SDS011;9570;50.854;13.778;2023-02-22T06:21:51;8.57;;;5.53;;
18875;SDS011;9570;50.854;13.778;2023-02-22T06:24:18;10.60;;;6.47;;
18875;SDS011;9570;50.854;13.778;2023-02-22T06:26:44;8.27;;;5.60;;
18875;SDS011;9570;50.854;13.778;2023-02-22T06:29:10;10.90;;;5.97;;
18875;SDS011;9570;50.854;13.778;2023-02-22T06:31:35;9.43;;;6.60;;
18875;SDS011;9570;50.854;13.778;2023-02-22T06:34:01;9.27;;;5.87;;
18875;SDS011;9570;50.854;13.778;2023-02-22T06:36:26;9.60;;;6.20;;
18875;SDS011;9570;50.854;13.778;2023-02-22T06:38:52;9.97;;;6.73;;
18875;SDS011;9570;50.854;13.778;2023-02-22T06:41:19;8.20;;;6.20;;
18875;SDS011;9570;50.854;13.778;2023-02-22T06:43:46;10.40;;;5.73;;
18875;SDS011;9570;50.854;13.778;2023-02-22T06:46:12;8.63;;;6.00;;
18875;SDS011;9570;50.854;13.778;2023-02-22T06:48:38;8.27;;;6.00;;
18875;SDS011;9570;50.854;13.778;2023-02-22T06:51:04;9.57;;;5.80;;
18875;SDS011;9570;50.854;13.778;2023-02-22T06:53:32;8.13;;;5.63;;
18875;SDS011;9570;50.854;13.778;2023-02-22T06:55:57;8.33;;;5.37;;
18875;SDS011;9570;50.854;13.778;2023-02-22T06:58:23;8.10;;;6.00;;
18875;SDS011;9570;50.854;13.778;2023-02-22T07:00:48;10.10;;;6.17;;
18875;SDS011;9570;50.854;13.778;2023-02-22T07:03:14;8.60;;;5.57;;
18875;SDS011;9570;50.854;13.778;2023-02-22T07:05:40;7.13;;;5.17;;
18875;SDS011;9570;50.854;13.778;2023-02-22T07:08:06;8.43;;;5.20;;
18875;SDS011;9570;50.854;13.778;2023-02-22T07:10:32;9.00;;;5.37;;
18875;SDS011;9570;50.854;13.778;2023-02-22T07:12:59;8.50;;;5.30;;
18875;SDS011;9570;50.854;13.778;2023-02-22T07:15:26;8.60;;;5.67;;
18875;SDS011;9570;50.854;13.778;2023-02-22T07:17:53;8.17;;;5.40;;
18875;SDS011;9570;50.854;13.778;2023-02-22T07:20:19;9.60;;;5.53;;
18875;SDS011;9570;50.854;13.778;2023-02-22T07:22:46;7.43;;;4.87;;
18875;SDS011;9570;50.854;13.778;2023-02-22T07:25:12;10.13;;;5.20;;
18875;SDS011;9570;50.854;13.778;2023-02-22T07:27:38;6.27;;;4.83;;
18875;SDS011;9570;50.854;13.778;2023-02-22T07:30:05;11.03;;;5.63;;
18875;SDS011;9570;50.854;13.778;2023-02-22T07:32:44;7.40;;;5.67;;
18875;SDS011;9570;50.854;13.778;2023-02-22T07:35:14;10.00;;;6.37;;
18875;SDS011;9570;50.854;13.778;2023-02-22T07:37:45;10.43;;;6.63;;
18875;SDS011;9570;50.854;13.778;2023-02-22T07:40:11;10.87;;;6.17;;
18875;SDS011;9570;50.854;13.778;2023-02-22T07:42:50;9.03;;;5.60;;
18875;SDS011;9570;50.854;13.778;2023-02-22T07:45:27;10.00;;;6.60;;
18875;SDS011;9570;50.854;13.778;2023-02-22T07:47:54;8.30;;;5.80;;
18875;SDS011;9570;50.854;13.778;2023-02-22T07:50:20;9.47;;;6.20;;
18875;SDS011;9570;50.854;13.778;2023-02-22T07:52:48;9.40;;;5.93;;
18875;SDS011;9570;50.854;13.778;2023-02-22T07:55:16;9.50;;;6.10;;
18875;SDS011;9570;50.854;13.778;2023-02-22T07:57:46;12.90;;;6.57;;
18875;SDS011;9570;50.854;13.778;2023-02-22T08:00:14;9.63;;;6.17;;
18875;SDS011;9570;50.854;13.778;2023-02-22T08:02:41;10.40;;;6.97;;
18875;SDS011;9570;50.854;13.778;2023-02-22T08:05:08;10.73;;;7.17;;
18875;SDS011;9570;50.854;13.778;2023-02-22T08:07:38;10.27;;;6.83;;
18875;SDS011;9570;50.854;13.778;2023-02-22T08:10:04;10.93;;;6.97;;
18875;SDS011;9570;50.854;13.778;2023-02-22T08:12:32;9.50;;;7.00;;
18875;SDS011;9570;50.854;13.778;2023-02-22T08:14:58;9.03;;;6.50;;
18875;SDS011;9570;50.854;13.778;2023-02-22T08:17:24;11.60;;;6.80;;
18875;SDS011;9570;50.854;13.778;2023-02-22T08:19:49;10.80;;;6.67;;
18875;SDS011;9570;50.854;13.778;2023-02-22T08:22:15;9.47;;;6.83;;
18875;SDS011;9570;50.854;13.778;2023-02-22T08:24:40;11.53;;;6.80;;
18875;SDS011;9570;50.854;13.778;2023-02-22T08:27:06;10.37;;;6.97;;
18875;SDS011;9570;50.854;13.778;2023-02-22T08:29:31;12.93;;;7.23;;
18875;SDS011;9570;50.854;13.778;2023-02-22T08:31:58;10.23;;;7.17;;
18875;SDS011;9570;50.854;13.778;2023-02-22T08:34:24;10.13;;;6.73;;
18875;SDS011;9570;50.854;13.778;2023-02-22T08:36:50;8.70;;;6.87;;
18875;SDS011;9570;50.854;13.778;2023-02-22T08:39:15;6.77;;;4.80;;
18875;SDS011;9570;50.854;13.778;2023-02-22T08:41:41;7.20;;;4.70;;
18875;SDS011;9570;50.854;13.778;2023-02-22T08:44:06;8.13;;;5.40;;
18875;SDS011;9570;50.854;13.778;2023-02-22T08:46:32;6.37;;;4.80;;
18875;SDS011;9570;50.854;13.778;2023-02-22T08:48:57;7.43;;;4.73;;
18875;SDS011;9570;50.854;13.778;2023-02-22T08:51:23;9.57;;;5.50;;
18875;SDS011;9570;50.854;13.778;2023-02-22T08:53:49;7.73;;;4.93;;
18875;SDS011;9570;50.854;13.778;2023-02-22T08:56:15;6.60;;;5.30;;
18875;SDS011;9570;50.854;13.778;2023-02-22T08:58:40;9.73;;;5.07;;
18875;SDS011;9570;50.854;13.778;2023-02-22T09:01:05;7.03;;;5.23;;
18875;SDS011;9570;50.854;13.778;2023-02-22T09:03:31;8.97;;;5.50;;
18875;SDS011;9570;50.854;13.778;2023-02-22T09:05:57;7.57;;;5.77;;
18875;SDS011;9570;50.854;13.778;2023-02-22T09:08:23;8.20;;;5.80;;
18875;SDS011;9570;50.854;13.778;2023-02-22T09:10:49;8.20;;;5.80;;
18875;SDS011;9570;50.854;13.778;2023-02-22T09:13:15;8.67;;;5.47;;
18875;SDS011;9570;50.854;13.778;2023-02-22T09:15:41;6.97;;;5.40;;
18875;SDS011;9570;50.854;13.778;2023-02-22T09:18:08;9.23;;;5.63;;
18875;SDS011;9570;50.854;13.778;2023-02-22T09:20:34;8.13;;;5.73;;
18875;SDS011;9570;50.854;13.778;2023-02-22T09:23:00;7.70;;;5.53;;
18875;SDS011;9570;50.854;13.778;2023-02-22T09:25:27;9.40;;;5.47;;
18875;SDS011;9570;50.854;13.778;2023-02-22T09:27:53;9.07;;;6.07;;
18875;SDS011;9570;50.854;13.778;2023-02-22T09:30:24;8.60;;;6.40;;
18875;SDS011;9570;50.854;13.778;2023-02-22T09:32:52;10.63;;;6.50;;
18875;SDS011;9570;50.854;13.778;2023-02-22T09:35:21;10.60;;;6.30;;
18875;SDS011;9570;50.854;13.778;2023-02-22T09:37:51;8.47;;;6.23;;
18875;SDS011;9570;50.854;13.778;2023-02-22T09:40:17;10.47;;;6.77;;
18875;SDS011;9570;50.854;13.778;2023-02-22T09:43:04;9.10;;;6.33;;
18875;SDS011;9570;50.854;13.778;2023-02-22T09:48:39;8.87;;;6.73;;
18875;SDS011;9570;50.854;13.778;2023-02-22T09:51:41;10.70;;;7.73;;
18875;SDS011;9570;50.854;13.778;2023-02-22T09:54:16;9.47;;;7.37;;
18875;SDS011;9570;50.854;13.778;2023-02-22T09:56:47;9.37;;;6.60;;
18875;SDS011;9570;50.854;13.778;2023-02-22T09:59:17;8.23;;;6.23;;
18875;SDS011;9570;50.854;13.778;2023-02-22T10:01:48;10.30;;;6.97;;
18875;SDS011;9570;50.854;13.778;2023-02-22T10:04:23;11.57;;;6.33;;
18875;SDS011;9570;50.854;13.778;2023-02-22T10:07:17;6.63;;;5.57;;
18875;SDS011;9570;50.854;13.778;2023-02-22T10:09:49;7.90;;;5.90;;
18875;SDS011;9570;50.854;13.778;2023-02-22T10:21:38;6.13;;;4.80;;
18875;SDS011;9570;50.854;13.778;2023-02-22T10:24:15;5.93;;;4.73;;
18875;SDS011;9570;50.854;13.778;2023-02-22T10:27:02;5.70;;;4.67;;
18875;SDS011;9570;50.854;13.778;2023-02-22T10:29:39;5.17;;;4.17;;
18875;SDS011;9570;50.854;13.778;2023-02-22T10:32:10;5.30;;;4.50;;
18875;SDS011;9570;50.854;13.778;2023-02-22T10:34:43;5.40;;;4.03;;
18875;SDS011;9570;50.854;13.778;2023-02-22T10:37:26;4.77;;;4.23;;
18875;SDS011;9570;50.854;13.778;2023-02-22T10:40:11;6.53;;;3.80;;
18875;SDS011;9570;50.854;13.778;2023-02-22T10:42:46;4.07;;;3.67;;
18875;SDS011;9570;50.854;13.778;2023-02-22T10:45:16;6.90;;;3.80;;
18875;SDS011;9570;50.854;13.778;2023-02-22T10:47:48;5.43;;;3.77;;
18875;SDS011;9570;50.854;13.778;2023-02-22T10:50:14;4.10;;;3.70;;
18875;SDS011;9570;50.854;13.778;2023-02-22T10:52:40;4.27;;;3.67;;
18875;SDS011;9570;50.854;13.778;2023-02-22T10:55:11;4.73;;;4.27;;
18875;SDS011;9570;50.854;13.778;2023-02-22T10:57:37;4.57;;;3.87;;
18875;SDS011;9570;50.854;13.778;2023-02-22T11:02:55;4.60;;;3.70;;
18875;SDS011;9570;50.854;13.778;2023-02-22T11:08:12;4.27;;;3.53;;
18875;SDS011;9570;50.854;13.778;2023-02-22T11:10:59;4.93;;;3.97;;
18875;SDS011;9570;50.854;13.778;2023-02-22T11:15:57;3.97;;;3.57;;
18875;SDS011;9570;50.854;13.778;2023-02-22T11:18:41;4.20;;;3.63;;
18875;SDS011;9570;50.854;13.778;2023-02-22T11:21:07;4.57;;;3.40;;
18875;SDS011;9570;50.854;13.778;2023-02-22T11:23:36;4.00;;;3.60;;
18875;SDS011;9570;50.854;13.778;2023-02-22T11:28:31;3.80;;;3.37;;
18875;SDS011;9570;50.854;13.778;2023-02-22T11:30:58;6.13;;;4.00;;
18875;SDS011;9570;50.854;13.778;2023-02-22T11:33:35;4.03;;;3.63;;
18875;SDS011;9570;50.854;13.778;2023-02-22T11:36:02;4.80;;;3.90;;
18875;SDS011;9570;50.854;13.778;2023-02-22T11:38:52;4.67;;;3.50;;
18875;SDS011;9570;50.854;13.778;2023-02-22T11:41:20;3.87;;;3.17;;
18875;SDS011;9570;50.854;13.778;2023-02-22T11:43:51;4.43;;;3.67;;
18875;SDS011;9570;50.854;13.778;2023-02-22T11:46:26;3.93;;;3.30;;
18875;SDS011;9570;50.854;13.778;2023-02-22T11:48:57;4.30;;;3.30;;
18875;SDS011;9570;50.854;13.778;2023-02-22T11:54:23;3.47;;;3.17;;
18875;SDS011;9570;50.854;13.778;2023-02-22T12:03:04;4.07;;;3.40;;
18875;SDS011;9570;50.854;13.778;2023-02-22T12:05:49;6.30;;;4.77;;
18875;SDS011;9570;50.854;13.778;2023-02-22T12:08:31;7.37;;;5.60;;
18875;SDS011;9570;50.854;13.778;2023-02-22T12:11:24;8.60;;;6.60;;
18875;SDS011;9570;50.854;13.778;2023-02-22T12:19:34;12.03;;;6.50;;
18875;SDS011;9570;50.854;13.778;2023-02-22T12:25:02;11.50;;;7.10;;
18875;SDS011;9570;50.854;13.778;2023-02-22T12:27:40;10.53;;;7.20;;
18875;SDS011;9570;50.854;13.778;2023-02-22T12:30:29;11.43;;;7.17;;
18875;SDS011;9570;50.854;13.778;2023-02-22T12:33:04;13.53;;;6.97;;
18875;SDS011;9570;50.854;13.778;2023-02-22T12:35:36;10.20;;;7.10;;
18875;SDS011;9570;50.854;13.778;2023-02-22T12:38:20;12.90;;;6.77;;
18875;SDS011;9570;50.854;13.778;2023-02-22T12:43:44;9.03;;;6.73;;
18875;SDS011;9570;50.854;13.778;2023-02-22T12:46:36;13.63;;;7.37;;
18875;SDS011;9570;50.854;13.778;2023-02-22T12:49:15;10.33;;;6.83;;
18875;SDS011;9570;50.854;13.778;2023-02-22T12:51:56;9.40;;;6.77;;
18875;SDS011;9570;50.854;13.778;2023-02-22T12:54:44;12.47;;;7.37;;
18875;SDS011;9570;50.854;13.778;2023-02-22T12:57:46;10.70;;;7.13;;
18875;SDS011;9570;50.854;13.778;2023-02-22T13:00:40;10.17;;;6.53;;
18875;SDS011;9570;50.854;13.778;2023-02-22T13:05:38;8.50;;;6.17;;
18875;SDS011;9570;50.854;13.778;2023-02-22T13:10:52;9.20;;;6.20;;
18875;SDS011;9570;50.854;13.778;2023-02-22T13:13:34;11.40;;;6.40;;
18875;SDS011;9570;50.854;13.778;2023-02-22T13:16:32;8.37;;;5.70;;
18875;SDS011;9570;50.854;13.778;2023-02-22T13:19:19;11.70;;;5.97;;
18875;SDS011;9570;50.854;13.778;2023-02-22T13:24:38;8.47;;;5.63;;
18875;SDS011;9570;50.854;13.778;2023-02-22T13:27:27;8.07;;;5.43;;
18875;SDS011;9570;50.854;13.778;2023-02-22T13:32:48;8.43;;;6.07;;
18875;SDS011;9570;50.854;13.778;2023-02-22T13:38:52;10.20;;;6.53;;
18875;SDS011;9570;50.854;13.778;2023-02-22T13:47:48;8.67;;;5.70;;
18875;SDS011;9570;50.854;13.778;2023-02-22T13:53:20;10.80;;;5.90;;
18875;SDS011;9570;50.854;13.778;2023-02-22T13:55:51;12.63;;;6.47;;
18875;SDS011;9570;50.854;13.778;2023-02-22T13:58:23;8.07;;;6.10;;
18875;SDS011;9570;50.854;13.778;2023-02-22T14:00:51;9.67;;;6.10;;
18875;SDS011;9570;50.854;13.778;2023-02-22T14:03:33;12.13;;;6.00;;
18875;SDS011;9570;50.854;13.778;2023-02-22T14:06:01;9.10;;;6.10;;
18875;SDS011;9570;50.854;13.778;2023-02-22T14:10:56;8.53;;;6.17;;
18875;SDS011;9570;50.854;13.778;2023-02-22T14:13:23;7.53;;;6.23;;
18875;SDS011;9570;50.854;13.778;2023-02-22T14:18:24;7.93;;;5.83;;
18875;SDS011;9570;50.854;13.778;2023-02-22T14:21:12;7.70;;;5.33;;
18875;SDS011;9570;50.854;13.778;2023-02-22T14:23:40;8.80;;;6.33;;
18875;SDS011;9570;50.854;13.778;2023-02-22T14:26:27;10.47;;;6.10;;
18875;SDS011;9570;50.854;13.778;2023-02-22T14:28:56;8.43;;;6.10;;
18875;SDS011;9570;50.854;13.778;2023-02-22T14:33:54;8.30;;;6.67;;
18875;SDS011;9570;50.854;13.778;2023-02-22T14:36:35;8.90;;;6.30;;
18875;SDS011;9570;50.854;13.778;2023-02-22T14:42:40;9.63;;;5.43;;
18875;SDS011;9570;50.854;13.778;2023-02-22T14:47:50;10.97;;;6.70;;
18875;SDS011;9570;50.854;13.778;2023-02-22T14:50:32;9.20;;;6.23;;
18875;SDS011;9570;50.854;13.778;2023-02-22T14:53:06;12.33;;;6.93;;
18875;SDS011;9570;50.854;13.778;2023-02-22T14:55:40;9.87;;;6.80;;
18875;SDS011;9570;50.854;13.778;2023-02-22T14:58:14;10.83;;;7.33;;
18875;SDS011;9570;50.854;13.778;2023-02-22T15:00:45;8.10;;;6.17;;
18875;SDS011;9570;50.854;13.778;2023-02-22T15:03:28;11.13;;;6.40;;
18875;SDS011;9570;50.854;13.778;2023-02-22T15:06:02;9.03;;;6.60;;
18875;SDS011;9570;50.854;13.778;2023-02-22T15:08:48;9.17;;;7.00;;
18875;SDS011;9570;50.854;13.778;2023-02-22T15:11:30;9.80;;;6.60;;
18875;SDS011;9570;50.854;13.778;2023-02-22T15:13:56;9.53;;;6.67;;
18875;SDS011;9570;50.854;13.778;2023-02-22T15:16:24;11.87;;;7.13;;
18875;SDS011;9570;50.854;13.778;2023-02-22T15:18:52;8.93;;;6.73;;
18875;SDS011;9570;50.854;13.778;2023-02-22T15:21:19;9.60;;;7.03;;
18875;SDS011;9570;50.854;13.778;2023-02-22T15:23:52;9.43;;;6.70;;
18875;SDS011;9570;50.854;13.778;2023-02-22T15:26:28;11.53;;;6.97;;
18875;SDS011;9570;50.854;13.778;2023-02-22T15:28:55;9.30;;;7.07;;
18875;SDS011;9570;50.854;13.778;2023-02-22T15:31:24;10.37;;;7.47;;
18875;SDS011;9570;50.854;13.778;2023-02-22T15:33:53;13.87;;;7.43;;
18875;SDS011;9570;50.854;13.778;2023-02-22T15:36:19;10.33;;;7.77;;
18875;SDS011;9570;50.854;13.778;2023-02-22T15:38:49;12.40;;;7.90;;
18875;SDS011;9570;50.854;13.778;2023-02-22T15:41:20;10.93;;;8.17;;
18875;SDS011;9570;50.854;13.778;2023-02-22T15:44:05;12.40;;;8.80;;
18875;SDS011;9570;50.854;13.778;2023-02-22T15:46:32;12.67;;;8.47;;
18875;SDS011;9570;50.854;13.778;2023-02-22T15:51:39;13.23;;;8.93;;
18875;SDS011;9570;50.854;13.778;2023-02-22T15:54:06;13.87;;;10.10;;
18875;SDS011;9570;50.854;13.778;2023-02-22T15:56:38;11.90;;;9.17;;
18875;SDS011;9570;50.854;13.778;2023-02-22T15:59:07;14.30;;;10.43;;
18875;SDS011;9570;50.854;13.778;2023-02-22T16:01:39;13.33;;;10.17;;
18875;SDS011;9570;50.854;13.778;2023-02-22T16:04:13;12.50;;;9.87;;
18875;SDS011;9570;50.854;13.778;2023-02-22T16:06:41;15.83;;;11.17;;
18875;SDS011;9570;50.854;13.778;2023-02-22T16:09:07;16.37;;;11.83;;
18875;SDS011;9570;50.854;13.778;2023-02-22T16:11:39;16.97;;;11.10;;
18875;SDS011;9570;50.854;13.778;2023-02-22T16:14:26;15.43;;;10.90;;
18875;SDS011;9570;50.854;13.778;2023-02-22T16:17:10;15.00;;;11.53;;
18875;SDS011;9570;50.854;13.778;2023-02-22T16:19:58;17.23;;;12.03;;
18875;SDS011;9570;50.854;13.778;2023-02-22T16:22:32;17.63;;;12.97;;
18875;SDS011;9570;50.854;13.778;2023-02-22T16:27:47;17.77;;;11.80;;
18875;SDS011;9570;50.854;13.778;2023-02-22T16:32:45;17.03;;;13.10;;
18875;SDS011;9570;50.854;13.778;2023-02-22T16:35:12;18.37;;;14.30;;
18875;SDS011;9570;50.854;13.778;2023-02-22T16:37:48;18.00;;;13.60;;
18875;SDS011;9570;50.854;13.778;2023-02-22T16:40:29;19.10;;;14.23;;
18875;SDS011;9570;50.854;13.778;2023-02-22T16:42:58;20.47;;;14.17;;
18875;SDS011;9570;50.854;13.778;2023-02-22T16:45:29;19.90;;;14.30;;
18875;SDS011;9570;50.854;13.778;2023-02-22T16:47:55;20.70;;;13.87;;
18875;SDS011;9570;50.854;13.778;2023-02-22T16:50:21;18.97;;;14.40;;
18875;SDS011;9570;50.854;13.778;2023-02-22T16:52:47;17.70;;;12.40;;
18875;SDS011;9570;50.854;13.778;2023-02-22T16:55:15;19.07;;;13.03;;
18875;SDS011;9570;50.854;13.778;2023-02-22T16:57:43;16.30;;;12.77;;